Home > Products > Valid Products > TAF

000
FTUS43 KDLH 231100
TAFDLH
TAF
KDLH 231120Z 2312/2412 24003KT P6SM SKC
     FM231700 19009G16KT P6SM SKC
     FM232300 16005KT P6SM SCT250=



000
FTUS43 KDLH 231100
TAFINL
TAF
KINL 231120Z 2312/2412 16003KT P6SM SKC
     FM231700 18009G17KT P6SM SKC
     FM232300 17005KT P6SM SKC=



000
FTUS43 KDLH 231100
TAFBRD
TAF
KBRD 231120Z 2312/2412 00000KT P6SM SKC
     FM231700 18011G19KT P6SM SKC
     FM232300 17008KT P6SM SCT100 BKN200=



000
FTUS43 KDLH 231100
TAFHYR
TAF
KHYR 231120Z 2312/2412 00000KT P6SM SKC
     FM231800 19008G15KT P6SM SKC
     FM232300 17005KT P6SM SKC=



000
FTUS43 KDLH 231000 AAA
TAFHYR
TAF AMD
KHYR 231053Z 2311/2406 00000KT P6SM SKC
     FM231800 19008G15KT P6SM SKC
     FM232300 17005KT P6SM SKC=



000
FTUS43 KDLH 231000 AAB
TAFBRD
TAF AMD
KBRD 231050Z 2311/2406 00000KT 1 1/2SM BR FEW001
      TEMPO 2312/2313 4SM BR
     FM231300 17004KT P6SM SKC
     FM231700 18011G19KT P6SM SKC
     FM232300 17008KT P6SM SCT100 BKN200=



000
FTUS43 KDLH 231000 AAA
TAFINL
TAF AMD
KINL 231048Z 2311/2406 00000KT P6SM SKC
     FM231700 18009G17KT P6SM SKC
     FM232300 17005KT P6SM SKC=



000
FTUS43 KDLH 231000 AAA
TAFDLH
TAF AMD
KDLH 231045Z 2311/2406 24004KT P6SM SKC
     FM231700 19009G16KT P6SM SKC
     FM232300 16005KT P6SM SCT250=



000
FTUS43 KDLH 230600 AAA
TAFBRD
TAF AMD
KBRD 230602Z 2306/2406 00000KT P6SM SKC
      TEMPO 2306/2309 4SM BR SKC
     FM230900 00000KT 4SM BR FEW002
      TEMPO 2309/2312 2SM BR SCT002
     FM231300 17004KT P6SM SKC
     FM231700 18011G19KT P6SM SKC
     FM232300 17008KT P6SM SCT040 BKN250=



000
FTUS43 KDLH 230500
TAFDLH
TAF
KDLH 230521Z 2306/2406 26005KT P6SM SKC
     FM231700 19009KT P6SM SKC
     FM240000 17005KT P6SM BKN250=



000
FTUS43 KDLH 230500
TAFINL
TAF
KINL 230521Z 2306/2406 00000KT P6SM SKC
     FM231600 18008G16KT P6SM SKC
     FM232300 18005KT P6SM SKC=



000
FTUS43 KDLH 230500
TAFBRD
TAF
KBRD 230521Z 2306/2406 00000KT 2SM BR SKC
      TEMPO 2306/2310 5SM BR SKC
     FM231300 17004KT P6SM SKC
     FM231700 18011G19KT P6SM SKC
     FM232300 17008KT P6SM SCT040 BKN250=



000
FTUS43 KDLH 230500
TAFHYR
TAF
KHYR 230521Z 2306/2406 00000KT P6SM SKC
     FM230900 00000KT 4SM BR SKC
     FM231300 19002KT P6SM SKC
     FM231800 19008G15KT P6SM SKC
     FM232300 18005KT P6SM SKC=



000
FTUS43 KDLH 222300
TAFINL
TAF
KINL 222320Z 2300/2324 24008KT P6SM SKC
     FM230100 VRB02KT P6SM SKC
     FM231700 18010KT P6SM FEW050=



000
FTUS43 KDLH 222300
TAFDLH
TAF
KDLH 222320Z 2300/2324 26010KT P6SM SKC
     FM230100 VRB03KT P6SM SKC
     FM231800 19010KT P6SM SKC=



000
FTUS43 KDLH 222300
TAFBRD
TAF
KBRD 222320Z 2300/2324 25008KT P6SM SKC
     FM230100 VRB02KT P6SM SKC
     FM231400 18010KT P6SM SKC
     FM231700 18012G22KT P6SM SKC
     FM232100 16008KT P6SM BKN250=



000
FTUS43 KDLH 222300
TAFHYR
TAF
KHYR 222320Z 2300/2324 24006KT P6SM SKC
     FM230100 VRB02KT P6SM SKC
     FM231600 19007KT P6SM SKC=



000
FTUS43 KDLH 221700
TAFDLH
TAF
KDLH 221739Z 2218/2318 26008KT P6SM FEW040
      TEMPO 2218/2220 28010G18KT
     FM230000 23003KT P6SM SKC=



000
FTUS43 KDLH 221700
TAFBRD
TAF
KBRD 221739Z 2218/2318 25008KT P6SM SKC
     FM230000 20003KT P6SM SKC
     FM231500 17010KT P6SM FEW050=



000
FTUS43 KDLH 221700
TAFINL
TAF
KINL 221739Z 2218/2318 27009KT P6SM FEW050
      TEMPO 2218/2220 28010G18KT
     FM230000 22003KT P6SM SKC
     FM231500 18010KT P6SM FEW050=



000
FTUS43 KDLH 221700
TAFHYR
TAF
KHYR 221739Z 2218/2318 26007KT P6SM FEW035
     FM230000 22003KT P6SM SKC=



000
FTUS43 KDLH 221600 AAA
TAFDLH
TAF AMD
KDLH 221602Z 2216/2312 28010KT P6SM FEW040
      TEMPO 2216/2220 29012G22KT
     FM230000 24005KT P6SM SKC=



000
FTUS43 KDLH 221400 AAD
TAFHYR
TAF AMD
KHYR 221453Z 2215/2312 22004KT P6SM FEW004 BKN029
     FM221530 25006KT P6SM SCT030
     FM221800 26007KT P6SM FEW025=



000
FTUS43 KDLH 221400 AAC
TAFHYR
TAF AMD
KHYR 221401Z 2214/2312 21003KT P6SM OVC003
     FM221445 24004KT P6SM SKC
     FM221800 26007KT P6SM FEW025=



000
FTUS43 KDLH 221300 AAC
TAFINL
TAF AMD
KINL 221316Z 2213/2312 23004KT 1 1/2SM BR OVC002
     FM221400 25006KT P6SM SKC
     FM221700 26009KT P6SM FEW035=



000
FTUS43 KDLH 221300 AAB
TAFHYR
TAF AMD
KHYR 221306Z 2213/2312 00000KT 3/4SM BR OVC002
     FM221400 26002KT P6SM SKC
     FM221800 26007KT P6SM FEW025=



000
FTUS43 KDLH 221200 AAA
TAFHYR
TAF AMD
KHYR 221219Z 2212/2312 00000KT 1SM BR OVC003
     FM221300 26002KT P6SM SKC
     FM221800 26007KT P6SM FEW025=



000
FTUS43 KDLH 221200 AAB
TAFINL
TAF AMD
KINL 221218Z 2212/2312 23004KT 1/4SM FG VV002
      TEMPO 2212/2213 4SM BR SCT002
     FM221300 23006KT P6SM SKC=



000
FTUS43 KDLH 221100 AAA
TAFINL
TAF AMD
KINL 221143Z 2212/2312 23004KT 3/4SM BR OVC002
      TEMPO 2212/2213 4SM BR SCT002
     FM221300 23006KT P6SM SKC=



000
FTUS43 KDLH 221100
TAFBRD
TAF
KBRD 221120Z 2212/2312 VRB02KT 4SM BR SKC
     FM221300 VRB02KT P6SM SKC
     FM221600 25008KT P6SM SKC
     FM230000 21003KT P6SM SKC=



000
FTUS43 KDLH 221100
TAFHYR
TAF
KHYR 221120Z 2212/2312 00000KT 4SM BR BKN003
     FM221300 26002KT P6SM SKC
     FM221800 26007KT P6SM FEW025=



000
FTUS43 KDLH 221100
TAFINL
TAF
KINL 221120Z 2212/2312 23004KT P6SM SKC
     FM221500 26008KT P6SM SKC=



000
FTUS43 KDLH 221100
TAFDLH
TAF
KDLH 221120Z 2212/2312 30004KT P6SM SCT030
     FM221600 26009KT P6SM FEW035=



000
FTUS43 KDLH 221000 AAA
TAFDLH
TAF AMD
KDLH 221013Z 2210/2306 30004KT P6SM SKC
      TEMPO 2210/2212 SCT015
     FM221600 26009KT P6SM FEW035=



000
FTUS43 KDLH 220800 AAC
TAFHYR
TAF AMD
KHYR 220808Z 2208/2306 00000KT 4SM BR SCT002
      TEMPO 2209/2212 3/4SM BR BKN002
     FM221300 26002KT P6SM SKC
     FM221800 26007KT P6SM FEW025
     FM230000 VRB02KT P6SM SKC=



000
FTUS43 KDLH 220700 AAB
TAFHYR
TAF AMD
KHYR 220732Z 2208/2306 00000KT 4SM BR SCT002
      TEMPO 2208/2211 3/4SM BR BKN002
     FM221300 26002KT P6SM SKC
     FM221800 26007KT P6SM FEW025
     FM230000 VRB02KT P6SM SKC=



000
FTUS43 KDLH 220700 AAC
TAFBRD
TAF AMD
KBRD 220716Z 2207/2306 VRB02KT 6SM BR SKC
      TEMPO 2209/2212 3/4SM BR SCT003
     FM221300 VRB02KT P6SM SKC
     FM221600 25008KT P6SM SKC
     FM230000 21003KT P6SM SKC=



000
FTUS43 KDLH 220600 AAB
TAFBRD
TAF AMD
KBRD 220624Z 2206/2306 00000KT 2SM BR SKC
      TEMPO 2209/2212 3/4SM BR SCT003
     FM221300 VRB02KT P6SM SKC
     FM221600 25008KT P6SM SKC
     FM230000 21003KT P6SM SKC=



000
FTUS43 KDLH 220600 AAA
TAFHYR
TAF AMD
KHYR 220622Z 2206/2306 00000KT P6SM SKC
     FM220800 00000KT 4SM BR FEW004
      TEMPO 2209/2212 1SM BR SCT004
     FM221300 26002KT P6SM SKC
     FM221800 26007KT P6SM FEW025
     FM230000 VRB02KT P6SM SKC=



000
FTUS43 KDLH 220600 AAA
TAFBRD
TAF AMD
KBRD 220604Z 2206/2306 00000KT 5SM BR SKC
      TEMPO 2209/2213 2SM BR SCT003
     FM221300 VRB02KT P6SM SKC
     FM221600 25008KT P6SM SKC
     FM230000 21003KT P6SM SKC=



000
FTUS43 KDLH 220500
TAFBRD
TAF
KBRD 220520Z 2206/2306 32004KT P6SM SKC
      TEMPO 2209/2213 1SM BR SCT003
     FM221600 25008KT P6SM SKC
     FM222300 VRB04KT P6SM SKC=



000
FTUS43 KDLH 220500
TAFINL
TAF
KINL 220520Z 2206/2306 26003KT P6SM SKC
      TEMPO 2209/2213 6SM BR SCT003
     FM221500 26008KT P6SM SKC
     FM230000 23004KT P6SM SKC=



000
FTUS43 KDLH 220500
TAFDLH
TAF
KDLH 220520Z 2206/2306 27003KT P6SM SKC
      TEMPO 2209/2213 6SM BR SCT006
     FM221500 26009KT P6SM FEW035
     FM230000 24005KT P6SM SKC=



000
FTUS43 KDLH 220500
TAFHYR
TAF
KHYR 220520Z 2206/2306 00000KT 4SM BR SKC
      TEMPO 2210/2213 1SM BR SCT006
     FM221500 26007KT P6SM FEW025
     FM230000 VRB02KT P6SM SKC=



000
FTUS43 KDLH 212300
TAFBRD
TAF
KBRD 212320Z 2200/2224 36007KT P6SM SCT045
     FM220300 27003KT P6SM SKC
      TEMPO 2209/2213 1SM BR SCT003
     FM221600 25009KT P6SM FEW026
     FM222100 22007KT P6SM SKC=



000
FTUS43 KDLH 212300
TAFHYR
TAF
KHYR 212320Z 2200/2224 VRB04KT P6SM SKC
      TEMPO 2210/2213 1SM BR SCT006
     FM221500 27007KT P6SM FEW025=



000
FTUS43 KDLH 212300
TAFDLH
TAF
KDLH 212320Z 2200/2224 34009KT P6SM SCT040
      TEMPO 2201/2204 BKN035
     FM220600 28003KT P6SM SKC
      TEMPO 2209/2213 6SM BR SCT006
     FM221300 27009KT P6SM SCT035=



000
FTUS43 KDLH 212300
TAFINL
TAF
KINL 212320Z 2200/2224 31006KT P6SM SCT035 BKN050
     FM220400 25002KT P6SM SKC
      TEMPO 2209/2213 6SM BR SCT003
     FM221500 26008KT P6SM SKC=



000
FTUS43 KDLH 212000 AAA
TAFDLH
TAF AMD
KDLH 212001Z 2120/2218 34010G16KT P6SM SKC
     FM212300 34008KT P6SM FEW030
     FM220400 30003KT P6SM FEW019
      TEMPO 2209/2213 4SM BR SCT006
     FM221600 26009KT P6SM SCT035=



000
FTUS43 KDLH 211900 AAA
TAFHYR
TAF AMD
KHYR 211923Z 2119/2218 35009G15KT P6SM SCT035
     FM220100 00000KT P6SM SCT030
      TEMPO 2210/2213 1SM BR SCT006
     FM221500 27007KT P6SM FEW025=



000
FTUS43 KDLH 211700
TAFBRD
TAF
KBRD 211720Z 2118/2218 35010KT P6SM FEW022 SCT035
     FM220200 31002KT P6SM FEW030
      TEMPO 2209/2213 1SM BR SCT003
     FM221600 25009KT P6SM FEW026=



000
FTUS43 KDLH 211700
TAFHYR
TAF
KHYR 211720Z 2118/2218 35009G15KT P6SM BKN028 BKN035
     FM220100 00000KT P6SM SCT030
      TEMPO 2210/2213 1SM BR SCT006
     FM221500 27007KT P6SM FEW025=



000
FTUS43 KDLH 211700
TAFDLH
TAF
KDLH 211720Z 2118/2218 36009G14KT P6SM FEW028
     FM212100 34008KT P6SM SCT030
     FM220400 30003KT P6SM FEW019
      TEMPO 2209/2213 4SM BR SCT006
     FM221600 26009KT P6SM SCT035=



000
FTUS43 KDLH 211700
TAFINL
TAF
KINL 211720Z 2118/2218 36007KT P6SM SKC
     FM212100 34005KT P6SM SCT028
     FM220300 28002KT P6SM FEW017
      TEMPO 2209/2213 1/2SM FG BKN003
     FM221500 26008KT P6SM SKC=



000
FTUS43 KDLH 211500 AAA
TAFHYR
TAF AMD
KHYR 211509Z 2115/2212 36009G15KT P6SM BKN022 BKN035
     FM211800 36009KT P6SM BKN035
     FM220200 00000KT P6SM SKC=



000
FTUS43 KDLH 211500 AAA
TAFDLH
TAF AMD
KDLH 211502Z 2115/2212 35012G16KT P6SM BKN022 BKN035
     FM211700 33009G14KT P6SM SCT025 BKN035
     FM220300 30004KT P6SM SKC=



000
FTUS43 KDLH 211300 AAA
TAFINL
TAF AMD
KINL 211327Z 2113/2212 33007KT P6SM SCT017
     FM211700 33007KT P6SM SCT030
     FM220200 30002KT P6SM SKC=



000
FTUS43 KDLH 211100
TAFHYR
TAF
KHYR 211122Z 2112/2212 36009G15KT P6SM -RA BKN012 BKN035
     FM211800 36009KT P6SM BKN035
     FM220200 00000KT P6SM SKC=



000
FTUS43 KDLH 211100
TAFINL
TAF
KINL 211122Z 2112/2212 33007KT P6SM BKN010
     FM211700 33007KT P6SM SCT030
     FM220200 30002KT P6SM SKC=



000
FTUS43 KDLH 211100
TAFDLH
TAF
KDLH 211122Z 2112/2212 35008KT P6SM SCT030 BKN040
     FM211700 33009KT P6SM SCT030
     FM220300 30004KT P6SM SKC=



000
FTUS43 KDLH 211100
TAFBRD
TAF
KBRD 211122Z 2112/2212 33010KT P6SM SCT025 BKN050
      TEMPO 2113/2115 BKN025
     FM220200 31002KT P6SM SKC=



000
FTUS43 KDLH 211000 AAB
TAFHYR
TAF AMD
KHYR 211007Z 2110/2206 36009G15KT P6SM -RA BKN020
      TEMPO 2110/2112 03013G20KT
     FM211200 36007KT P6SM BKN015
     FM211800 36009KT P6SM BKN035
     FM220200 00000KT P6SM SKC=



000
FTUS43 KDLH 210900 AAB
TAFINL
TAF AMD
KINL 210900Z 2109/2206 33008KT P6SM BKN009
     FM211200 33008KT P6SM BKN015
     FM211700 33007KT P6SM SCT030
     FM220200 30002KT P6SM SKC=



000
FTUS43 KDLH 210800 AAA
TAFINL
TAF AMD
KINL 210849Z 2109/2206 33008KT P6SM SCT007
     FM211200 33008KT P6SM BKN015
     FM211700 33007KT P6SM SCT030
     FM220200 30002KT P6SM SKC=



000
FTUS43 KDLH 210800 AAB
TAFBRD
TAF AMD
KBRD 210847Z 2109/2206 33011KT P6SM SCT025
     FM211100 33011KT P6SM BKN025
     FM211600 34009KT P6SM SCT030
     FM220200 31002KT P6SM SKC=



000
FTUS43 KDLH 210800 AAA
TAFDLH
TAF AMD
KDLH 210844Z 2109/2206 35010KT P6SM -RA BKN012
     FM211700 33009KT P6SM SCT030
     FM220300 30004KT P6SM SKC=



000
FTUS43 KDLH 210800 AAA
TAFHYR
TAF AMD
KHYR 210801Z 2108/2206 32005KT P6SM -RA OVC006
     FM211200 35007KT P6SM BKN015
     FM211800 36009KT P6SM BKN035
     FM220200 00000KT P6SM SKC=



000
FTUS43 KDLH 210600 AAA
TAFBRD
TAF AMD
KBRD 210620Z 2106/2206 33012KT P6SM BKN020
     FM211600 34009KT P6SM SCT030
     FM220200 31002KT P6SM SKC=



000
FTUS43 KDLH 210600 AAA
TAFDLH
TAF AMD
KDLH 210619Z 2106/2206 33010KT P6SM -RA OVC008
     FM211300 35010KT P6SM BKN025
     FM211700 33009KT P6SM SCT030
     FM220300 30004KT P6SM SKC=



000
FTUS43 KDLH 210500
TAFHYR
TAF
KHYR 210533Z 2106/2206 26004KT 6SM -RA BR BKN010 OVC014
     FM211200 35007KT P6SM BKN015
     FM211800 36009KT P6SM BKN035
     FM220200 00000KT P6SM SKC=



000
FTUS43 KDLH 210500
TAFINL
TAF
KINL 210533Z 2106/2206 33011KT P6SM -RA SCT010 OVC060
     FM210900 33009KT P6SM BKN015
     FM211700 33007KT P6SM SCT030
     FM220200 30002KT P6SM SKC=



000
FTUS43 KDLH 210500
TAFBRD
TAF
KBRD 210533Z 2106/2206 33010KT P6SM FEW030
     FM210900 31009KT P6SM BKN020
     FM211600 34009KT P6SM SCT030
     FM220200 31002KT P6SM SKC=



000
FTUS43 KDLH 210500
TAFDLH
TAF
KDLH 210533Z 2106/2206 33010KT P6SM -RA BKN025 OVC035
     FM210900 35007KT P6SM OVC010
     FM211300 35010KT P6SM BKN025
     FM211700 33009KT P6SM SCT030
     FM220300 30004KT P6SM SKC=



000
FTUS43 KDLH 210200 AAA
TAFINL
TAF AMD
KINL 210226Z 2102/2124 33011KT 5SM -RA BR BKN009 OVC016
     FM210500 32005KT P6SM VCSH BKN008
     FM211500 33007KT P6SM BKN015
     FM211700 33007KT P6SM SCT020=



000
FTUS43 KDLH 210100 AAA
TAFBRD
TAF AMD
KBRD 210124Z 2101/2124 28010G20KT P6SM BKN060
     FM210300 31013KT P6SM VCSH BKN035
     FM210500 31007KT P6SM SKC
     FM211000 33007KT P6SM BKN020
     FM211700 34008KT P6SM BKN035=



000
FTUS43 KDLH 210100 AAA
TAFDLH
TAF AMD
KDLH 210104Z 2101/2124 30010G20KT 4SM -RA BR BKN040
     FM210300 30010KT 5SM BR VCSH OVC030
     FM210600 33008KT P6SM OVC015
     FM210900 33007KT 6SM BR OVC010
     FM211600 33009KT P6SM BKN018
     FM211800 33018KT P6SM SCT020=



000
FTUS43 KDLH 202300
TAFBRD
TAF
KBRD 202338Z 2100/2124 28010G20KT P6SM BKN020
     FM210300 31013KT P6SM VCSH BKN015
     FM210500 31007KT P6SM SKC
     FM211000 33007KT P6SM BKN020
     FM211700 34008KT P6SM BKN035=



000
FTUS43 KDLH 202300
TAFDLH
TAF
KDLH 202338Z 2100/2124 29015G25KT 5SM -TSRA BKN040CB
      TEMPO 2100/2102 2SM TSRA BKN025CB
     FM210300 30010KT P6SM VCSH OVC020
     FM210600 33008KT P6SM OVC015
     FM210900 33007KT 6SM BR OVC010
     FM211600 33009KT P6SM BKN018
     FM211800 33018KT P6SM SCT020=



000
FTUS43 KDLH 202300
TAFINL
TAF
KINL 202338Z 2100/2124 36005KT P6SM VCSH BKN035
     FM210500 32005KT P6SM VCSH BKN035
     FM210800 32005KT 5SM BR OVC008
     FM211500 33007KT P6SM BKN015
     FM211700 33007KT P6SM SCT020=



000
FTUS43 KDLH 202300
TAFHYR
TAF
KHYR 202338Z 2100/2124 29008KT P6SM -TSRA BKN028CB
     FM210500 VRB03KT 6SM -RA OVC020
     FM211100 35004KT 5SM BR VCSH OVC010
     FM211600 34004KT P6SM BKN020=



000
FTUS43 KDLH 202200 AAB
TAFDLH
TAF AMD
KDLH 202227Z 2022/2118 27008KT P6SM SCT028
     FM202300 29015G25KT 6SM -TSRA BKN025CB
      TEMPO 2100/2102 2SM TSRA BKN025CB
     FM210300 30010G20KT P6SM VCSH OVC020
     FM210600 33008KT P6SM OVC015
     FM210900 33007KT 6SM BR OVC010
     FM211600 33009KT P6SM BKN018=



000
FTUS43 KDLH 202200 AAB
TAFBRD
TAF AMD
KBRD 202217Z 2022/2118 28010G20KT P6SM -RA SCT070 OVC090
     FM202300 29012G22KT P6SM BKN045
     FM210300 31013KT P6SM VCSH BKN015
     FM211400 33007KT P6SM BKN020=



000
FTUS43 KDLH 202100 AAA
TAFBRD
TAF AMD
KBRD 202112Z 2021/2118 29011KT P6SM TSRA SCT020CB BKN045
      TEMPO 2021/2023 VRB15G25KT 4SM TSRA BKN020CB
     FM202300 29012KT P6SM SCT015 BKN045
      TEMPO 2023/2102 5SM SHRA BR BKN015
     FM210300 31013KT P6SM VCSH BKN015
     FM211400 33007KT P6SM BKN020=



000
FTUS43 KDLH 202000 AAA
TAFDLH
TAF AMD
KDLH 202031Z 2021/2118 30012KT P6SM SCT028
     FM210000 26006KT 6SM -TSRA SCT015CB BKN030CB
      TEMPO 2100/2102 4SM TSRA BKN015CB
     FM210300 30008KT 6SM -RA BR OVC020
     FM210600 33008KT 5SM -RA BR OVC015
     FM210900 33007KT 6SM BR OVC010
     FM211600 33009KT P6SM BKN018=



000
FTUS43 KDLH 201900 AAA
TAFINL
TAF AMD
KINL 201910Z 2019/2118 27008KT P6SM SCT028
      TEMPO 2019/2020 BKN028
     FM210000 31005KT P6SM VCTS BKN035CB
      TEMPO 2101/2105 5SM -TSRA BKN020CB
     FM210500 32005KT P6SM VCSH BKN015
     FM210800 32005KT 5SM BR OVC008
     FM211600 33007KT P6SM BKN015=



000
FTUS43 KDLH 201700
TAFBRD
TAF
KBRD 201728Z 2018/2118 29011KT P6SM BKN025
     FM201930 28009KT P6SM SCT025
     FM202100 27010KT 6SM -TSRA SCT015 BKN025CB
     FM210000 29010KT 6SM -SHRA VCTS OVC015CB
     FM210300 31013KT P6SM VCSH BKN015
     FM211400 33007KT P6SM BKN020=



000
FTUS43 KDLH 201700
TAFDLH
TAF
KDLH 201728Z 2018/2118 30012KT P6SM SCT020
      TEMPO 2019/2021 BKN025
     FM202300 26006KT 6SM -TSRA SCT015CB BKN030CB
     FM210300 30008KT 6SM -RA BR OVC020
     FM210600 33008KT 5SM -RA BR OVC015
     FM210900 33007KT 6SM BR OVC010
     FM211600 33009KT P6SM BKN018=



000
FTUS43 KDLH 201700
TAFHYR
TAF
KHYR 201728Z 2018/2118 29008KT P6SM BKN028
     FM201930 27005KT P6SM SCT035
     FM210100 VRB03KT 6SM -TSRA BR SCT015 BKN030CB
     FM210500 VRB03KT 6SM -RA OVC020
     FM211100 35004KT 5SM BR VCSH OVC010
     FM211600 34004KT P6SM BKN020=



000
FTUS43 KDLH 201700
TAFINL
TAF
KINL 201728Z 2018/2118 29010KT P6SM BKN012
     FM201900 27008KT P6SM BKN025
      TEMPO 2020/2022 SCT025
     FM210000 31005KT P6SM VCTS BKN035CB
      TEMPO 2101/2105 5SM -TSRA BKN020CB
     FM210500 32005KT P6SM VCSH BKN015
     FM210800 32005KT 5SM BR OVC008
     FM211600 33007KT P6SM BKN015=



000
FTUS43 KDLH 201600 AAB
TAFINL
TAF AMD
KINL 201601Z 2016/2112 29009KT 5SM BR OVC008
     FM201800 28008KT P6SM BKN012
     FM202000 27008KT P6SM BKN025
      TEMPO 2020/2022 SCT025
     FM210000 31005KT P6SM VCTS BKN035CB
      TEMPO 2101/2105 5SM -TSRA BKN020CB
     FM210500 32005KT P6SM VCSH BKN015
     FM210800 32005KT 5SM BR OVC008=



000
FTUS43 KDLH 201500 AAA
TAFHYR
TAF AMD
KHYR 201523Z 2015/2112 30008G15KT P6SM BKN025
      TEMPO 2015/2017 SCT025
     FM201700 29008KT P6SM BKN028
     FM202000 26005KT P6SM SCT035
     FM210100 VRB04KT P6SM -TSRA BKN050CB
     FM210500 29004KT P6SM -RA BKN050=



000
FTUS43 KDLH 201500 AAB
TAFDLH
TAF AMD
KDLH 201500Z 2015/2112 30013G19KT P6SM BKN020
     FM201800 27013G20KT P6SM SCT028
      TEMPO 2018/2020 BKN028
     FM202000 28011KT P6SM SCT050
     FM202300 28010KT P6SM -TSRA BKN050CB
     FM210300 30008KT P6SM -RA BKN030=



000
FTUS43 KDLH 201400 AAA
TAFBRD
TAF AMD
KBRD 201429Z 2014/2112 31007KT P6SM BKN018
     FM201600 28011G18KT P6SM BKN023
      TEMPO 2016/2018 SCT023
     FM202100 27011KT P6SM -TSRA BKN040CB
     FM210200 30010KT P6SM SCT050=



000
FTUS43 KDLH 201400 AAA
TAFDLH
TAF AMD
KDLH 201401Z 2014/2112 30012G19KT P6SM BKN012
     FM201800 27013G20KT P6SM SCT030
     FM202000 28011KT P6SM SCT050
     FM202300 28010KT P6SM -TSRA BKN050CB
     FM210300 30008KT P6SM -RA BKN030=



000
FTUS43 KDLH 201300 AAA
TAFINL
TAF AMD
KINL 201352Z 2014/2112 29009KT 4SM BR OVC005
     FM201600 29008G15KT P6SM BKN015
     FM201800 28008KT P6SM SCT030
     FM202000 27008KT P6SM -TSRA BKN035CB
     FM210000 30005KT P6SM BKN035
     FM210300 30005KT P6SM BKN025=



    US Dept of Commerce
    National Oceanic and Atmospheric Administration
    National Weather Service
    1325 East West Highway
    Silver Spring, MD 20910
    Page Author: NWS Internet Services Team
Disclaimer
Information Quality
Credits
Glossary
Privacy Policy
Freedom of Information Act (FOIA)
About Us
Career Opportunities